createdAt,value
2023-09-25T00:00:42.334Z,0.45
2023-09-25T00:03:12.676Z,0.60
2023-09-25T00:05:41.789Z,0.43
2023-09-25T00:08:10.867Z,0.50
2023-09-25T00:10:41.712Z,0.57
2023-09-25T00:13:10.914Z,0.52
2023-09-25T00:15:45.421Z,0.60
2023-09-25T00:18:16.330Z,0.68
2023-09-25T00:20:44.962Z,0.52
2023-09-25T00:23:13.586Z,0.60
2023-09-25T00:25:42.215Z,0.50
2023-09-25T00:28:10.855Z,0.55
2023-09-25T00:30:39.543Z,0.40
2023-09-25T00:33:08.275Z,0.57
2023-09-25T00:35:38.358Z,0.45
2023-09-25T00:38:07.045Z,0.60
2023-09-25T00:40:37.618Z,0.70
2023-09-25T00:43:06.643Z,0.60
2023-09-25T00:45:38.113Z,0.40
2023-09-25T00:48:07.600Z,0.60
2023-09-25T00:50:36.326Z,0.55
2023-09-25T00:53:09.116Z,0.47
2023-09-25T00:55:37.759Z,0.50
2023-09-25T00:58:09.076Z,0.50
2023-09-25T01:00:38.048Z,0.50
2023-09-25T01:03:07.240Z,0.40
2023-09-25T01:05:38.673Z,0.52
2023-09-25T01:08:11.654Z,0.32
2023-09-25T01:10:40.425Z,0.40
2023-09-25T01:13:11.276Z,0.50
2023-09-25T01:15:40.841Z,0.50
2023-09-25T01:18:10.257Z,0.55
2023-09-25T01:20:39.195Z,0.50
2023-09-25T01:23:09.379Z,0.68
2023-09-25T01:25:37.960Z,0.57
2023-09-25T01:28:07.016Z,0.47
2023-09-25T01:30:35.615Z,0.60
2023-09-25T01:33:05.619Z,0.50
2023-09-25T01:35:34.246Z,0.60
2023-09-25T01:38:05.155Z,0.40
2023-09-25T01:40:35.134Z,0.50
2023-09-25T01:43:04.089Z,0.47
2023-09-25T01:45:32.710Z,0.68
2023-09-25T01:48:01.379Z,0.38
2023-09-25T01:50:30.791Z,0.70
2023-09-25T01:53:01.122Z,0.50
2023-09-25T01:55:33.354Z,0.45
2023-09-25T01:58:04.082Z,0.52
2023-09-25T02:00:32.728Z,0.50
2023-09-25T02:03:01.574Z,0.55
2023-09-25T02:05:30.976Z,0.50
2023-09-25T02:07:59.588Z,0.70
2023-09-25T02:10:28.158Z,0.47
2023-09-25T02:12:56.752Z,0.57
2023-09-25T02:15:26.678Z,0.63
2023-09-25T02:17:55.530Z,0.50
2023-09-25T02:20:27.058Z,0.70
2023-09-25T02:22:55.591Z,0.57
2023-09-25T02:25:24.236Z,0.50
2023-09-25T02:27:54.541Z,0.60
2023-09-25T02:30:23.272Z,0.47
2023-09-25T02:32:53.398Z,0.68
2023-09-25T02:35:22.098Z,0.60
2023-09-25T02:37:50.614Z,0.52
2023-09-25T02:40:19.459Z,0.40
2023-09-25T02:42:48.627Z,0.60
2023-09-25T02:45:18.096Z,0.50
2023-09-25T02:47:46.934Z,0.50
2023-09-25T02:50:18.017Z,0.57
2023-09-25T02:52:46.623Z,0.88
2023-09-25T02:55:15.545Z,0.60
2023-09-25T02:57:45.353Z,1.05
2023-09-25T03:00:14.804Z,0.40
2023-09-25T03:02:44.799Z,0.65
2023-09-25T03:05:13.493Z,0.63
2023-09-25T03:07:43.685Z,0.75
2023-09-25T03:10:12.330Z,3.78
2023-09-25T03:12:41.659Z,0.50
2023-09-25T03:15:11.155Z,0.50
2023-09-25T03:17:40.148Z,0.80
2023-09-25T03:20:16.274Z,0.70
2023-09-25T03:22:47.957Z,0.47
2023-09-25T03:25:19.770Z,0.50
2023-09-25T03:27:48.491Z,0.47
2023-09-25T03:30:17.495Z,0.80
2023-09-25T03:32:47.118Z,0.65
2023-09-25T03:35:17.397Z,0.63
2023-09-25T03:37:48.297Z,0.50
2023-09-25T03:40:17.063Z,0.65
2023-09-25T03:42:45.649Z,0.90
2023-09-25T03:45:14.468Z,0.60
2023-09-25T03:47:44.193Z,0.77
2023-09-25T03:50:13.268Z,0.70
2023-09-25T03:52:41.834Z,0.70
2023-09-25T03:55:12.386Z,0.50
2023-09-25T03:57:41.120Z,0.47
2023-09-25T04:00:10.727Z,0.50
2023-09-25T04:02:42.017Z,0.77
2023-09-25T04:05:11.384Z,0.47
2023-09-25T04:07:40.274Z,0.70
2023-09-25T04:10:12.207Z,0.52
2023-09-25T04:12:41.012Z,0.70
2023-09-25T04:15:14.660Z,0.65
2023-09-25T04:17:43.428Z,0.57
2023-09-25T04:20:18.959Z,0.80
2023-09-25T04:22:48.446Z,0.63
2023-09-25T04:25:20.846Z,0.85
2023-09-25T04:27:51.690Z,0.60
2023-09-25T04:30:21.434Z,0.70
2023-09-25T04:32:55.057Z,0.80
2023-09-25T04:35:24.564Z,0.60
2023-09-25T04:37:55.089Z,0.75
2023-09-25T04:40:25.637Z,0.90
2023-09-25T04:42:55.774Z,1.05
2023-09-25T04:45:25.034Z,0.70
2023-09-25T04:47:54.394Z,1.75
2023-09-25T04:50:24.741Z,0.73
2023-09-25T04:52:53.661Z,1.08
2023-09-25T04:55:22.373Z,1.10
2023-09-25T04:57:52.643Z,0.60
2023-09-25T05:00:23.114Z,0.63
2023-09-25T05:02:52.726Z,0.80
2023-09-25T05:05:21.448Z,0.50
2023-09-25T05:07:50.944Z,0.85
2023-09-25T05:10:24.079Z,0.85
2023-09-25T05:12:54.748Z,0.60
2023-09-25T05:15:23.624Z,0.50
2023-09-25T05:17:52.750Z,1.08
2023-09-25T05:20:23.870Z,0.95
2023-09-25T05:22:53.879Z,0.68
2023-09-25T05:25:23.770Z,1.20
2023-09-25T05:27:59.714Z,0.70
2023-09-25T05:30:29.801Z,0.60
2023-09-25T05:32:58.590Z,1.35
2023-09-25T05:35:27.309Z,0.60
2023-09-25T05:37:55.894Z,0.80
2023-09-25T05:40:24.692Z,0.60
2023-09-25T05:42:54.678Z,0.88
2023-09-25T05:45:23.367Z,0.50
2023-09-25T05:47:52.493Z,0.80
2023-09-25T05:50:21.154Z,1.20
2023-09-25T05:52:49.759Z,0.40
2023-09-25T05:55:18.434Z,1.00
2023-09-25T05:57:47.180Z,0.80
2023-09-25T06:00:19.935Z,0.95
2023-09-25T06:02:49.226Z,0.70
2023-09-25T06:05:17.974Z,0.85
2023-09-25T06:07:47.848Z,0.50
2023-09-25T06:10:18.965Z,0.88
2023-09-25T06:12:48.876Z,0.68
2023-09-25T06:15:19.476Z,0.60
2023-09-25T06:17:48.504Z,0.73
2023-09-25T06:20:18.308Z,0.80
2023-09-25T06:22:48.042Z,1.00
2023-09-25T06:25:19.434Z,0.70
2023-09-25T06:27:49.577Z,0.73
2023-09-25T06:30:21.087Z,0.60
2023-09-25T06:32:51.127Z,0.93
2023-09-25T06:35:20.132Z,0.80
2023-09-25T06:37:49.026Z,0.75
2023-09-25T06:40:18.742Z,0.63
2023-09-25T06:42:48.002Z,0.80
2023-09-25T06:45:16.872Z,0.70
2023-09-25T06:47:48.700Z,0.47
2023-09-25T06:50:18.260Z,0.70
2023-09-25T06:52:46.986Z,0.70
2023-09-25T06:55:15.890Z,0.60
2023-09-25T06:57:44.519Z,1.10
2023-09-25T07:00:15.205Z,0.70
2023-09-25T07:02:44.654Z,0.52
2023-09-25T07:05:15.441Z,0.88
2023-09-25T07:07:44.506Z,0.50
2023-09-25T07:10:14.121Z,1.15
2023-09-25T07:12:43.146Z,0.60
2023-09-25T07:15:12.600Z,0.60
2023-09-25T07:17:41.304Z,0.70
2023-09-25T07:20:11.232Z,0.70
2023-09-25T07:22:41.377Z,0.82
2023-09-25T07:25:10.819Z,0.88
2023-09-25T07:27:39.458Z,0.70
2023-09-25T07:30:09.800Z,0.60
2023-09-25T07:32:38.925Z,0.73
2023-09-25T07:35:11.013Z,0.75
2023-09-25T07:37:42.895Z,0.50
2023-09-25T07:40:13.401Z,1.17
2023-09-25T07:42:42.182Z,1.13
2023-09-25T07:45:13.650Z,0.93
2023-09-25T07:47:43.061Z,1.23
2023-09-25T07:50:12.468Z,1.23
2023-09-25T07:52:43.373Z,0.90
2023-09-25T07:55:13.226Z,1.58
2023-09-25T07:57:44.114Z,0.88
2023-09-25T08:00:17.391Z,1.23
2023-09-25T08:02:48.965Z,1.80
2023-09-25T08:05:19.481Z,1.10
2023-09-25T08:07:49.916Z,1.40
2023-09-25T08:10:19.479Z,1.58
2023-09-25T08:12:48.714Z,1.10
2023-09-25T08:15:17.914Z,1.52
2023-09-25T08:17:47.501Z,1.65
2023-09-25T08:20:22.045Z,0.98
2023-09-25T08:22:53.691Z,1.23
2023-09-25T08:25:22.823Z,1.30
2023-09-25T08:27:52.941Z,1.05
2023-09-25T08:30:22.246Z,2.20
2023-09-25T08:32:51.399Z,1.00
2023-09-25T08:35:20.205Z,1.58
2023-09-25T08:37:49.262Z,1.67
2023-09-25T08:40:20.413Z,1.00
2023-09-25T08:42:52.728Z,1.45
2023-09-25T08:45:27.847Z,1.42
2023-09-25T08:47:56.700Z,1.50
2023-09-25T08:50:25.753Z,1.42
2023-09-25T08:52:57.199Z,1.45
2023-09-25T08:55:28.748Z,1.30
2023-09-25T08:57:58.120Z,1.63
2023-09-25T09:00:26.841Z,1.88
2023-09-25T09:02:55.461Z,1.27
2023-09-25T09:05:24.321Z,1.80
2023-09-25T09:07:59.447Z,1.50
2023-09-25T09:10:33.240Z,2.05
2023-09-25T09:13:04.110Z,1.83
2023-09-25T09:15:33.721Z,1.55
2023-09-25T09:18:19.672Z,1.42
2023-09-25T09:20:50.503Z,1.70
2023-09-25T09:23:19.080Z,1.52
2023-09-25T09:25:49.952Z,1.88
2023-09-25T09:28:18.533Z,1.45
2023-09-25T09:30:47.084Z,1.55
2023-09-25T09:33:15.663Z,2.28
2023-09-25T09:35:44.596Z,1.40
2023-09-25T09:38:14.411Z,1.35
2023-09-25T09:40:43.006Z,1.83
2023-09-25T09:43:13.055Z,1.48
2023-09-25T09:45:44.482Z,1.80
2023-09-25T09:48:15.362Z,1.25
2023-09-25T09:50:50.479Z,2.05
2023-09-25T09:53:19.608Z,1.48
2023-09-25T09:55:48.504Z,1.65
2023-09-25T09:58:18.690Z,1.73
2023-09-25T10:00:47.766Z,1.98
2023-09-25T10:03:16.678Z,1.65
2023-09-25T10:05:46.013Z,1.55
2023-09-25T10:08:14.579Z,1.85
2023-09-25T10:10:45.158Z,1.30
2023-09-25T10:13:16.522Z,1.75
2023-09-25T10:15:57.486Z,1.55
2023-09-25T10:18:28.410Z,1.50
2023-09-25T10:21:03.476Z,1.23
2023-09-25T10:23:35.863Z,1.08
2023-09-25T10:26:04.491Z,1.23
2023-09-25T10:28:35.026Z,1.92
2023-09-25T10:31:07.061Z,1.13
2023-09-25T10:33:39.448Z,1.27
2023-09-25T10:36:08.408Z,1.20
2023-09-25T10:38:37.949Z,1.02
2023-09-25T10:41:08.693Z,1.33
2023-09-25T10:43:38.056Z,1.08
2023-09-25T10:46:08.102Z,1.67
2023-09-25T10:48:36.871Z,1.10
2023-09-25T10:51:05.567Z,1.20
2023-09-25T10:53:34.710Z,1.10
2023-09-25T10:56:03.284Z,1.25
2023-09-25T10:58:32.655Z,1.08
2023-09-25T11:01:05.599Z,1.08
2023-09-25T11:03:38.518Z,1.13
2023-09-25T11:06:09.017Z,1.42
2023-09-25T11:08:37.662Z,1.67
2023-09-25T11:11:07.701Z,1.08
2023-09-25T11:13:36.502Z,1.73
2023-09-25T11:16:06.263Z,1.10
2023-09-25T11:18:34.944Z,1.00
2023-09-25T11:21:04.970Z,1.02
2023-09-25T11:23:34.922Z,1.60
2023-09-25T11:26:05.142Z,1.08
2023-09-25T11:28:34.733Z,1.42
2023-09-25T11:31:04.156Z,1.42
2023-09-25T11:33:33.615Z,1.05
2023-09-25T11:36:02.343Z,1.17
2023-09-25T11:38:32.780Z,1.10
2023-09-25T11:41:05.391Z,1.10
2023-09-25T11:43:33.971Z,1.48
2023-09-25T11:46:02.713Z,1.25
2023-09-25T11:48:31.519Z,1.20
2023-09-25T11:51:00.278Z,1.05
2023-09-25T11:53:28.946Z,0.95
2023-09-25T11:55:58.970Z,1.05
2023-09-25T11:58:29.629Z,1.67
2023-09-25T12:00:58.321Z,1.30
2023-09-25T12:03:27.173Z,1.23
2023-09-25T12:05:58.300Z,1.55
2023-09-25T12:08:26.859Z,1.35
2023-09-25T12:10:56.277Z,0.85
2023-09-25T12:13:26.296Z,1.30
2023-09-25T12:15:54.987Z,1.10
2023-09-25T12:18:24.921Z,0.80
2023-09-25T12:20:55.159Z,1.10
2023-09-25T12:23:24.370Z,1.20
2023-09-25T12:25:53.649Z,0.90
2023-09-25T12:28:22.252Z,1.10
2023-09-25T12:30:52.271Z,0.93
2023-09-25T12:33:22.607Z,1.10
2023-09-25T12:35:51.269Z,0.90
2023-09-25T12:38:20.084Z,1.17
2023-09-25T12:40:48.920Z,1.38
2023-09-25T12:43:17.538Z,0.80
2023-09-25T12:45:46.514Z,0.88
2023-09-25T12:48:16.647Z,0.77
2023-09-25T12:50:45.354Z,1.15
2023-09-25T12:53:14.255Z,1.60
2023-09-25T12:55:42.892Z,1.10
2023-09-25T12:58:11.879Z,1.00
2023-09-25T13:00:40.865Z,1.48
2023-09-25T13:03:10.581Z,1.08
2023-09-25T13:05:40.610Z,0.90
2023-09-25T13:08:09.253Z,0.70
2023-09-25T13:10:37.792Z,1.10
2023-09-25T13:13:06.347Z,1.35
2023-09-25T13:15:34.951Z,1.00
2023-09-25T13:18:06.123Z,0.77
2023-09-25T13:20:35.005Z,1.10
2023-09-25T13:23:05.255Z,1.63
2023-09-25T13:25:33.970Z,0.90
2023-09-25T13:28:02.624Z,0.80
2023-09-25T13:30:31.307Z,0.80
2023-09-25T13:33:00.096Z,0.90
2023-09-25T13:35:29.392Z,0.88
2023-09-25T13:37:58.081Z,0.80
2023-09-25T13:40:30.125Z,0.63
2023-09-25T13:42:58.764Z,1.55
2023-09-25T13:45:27.421Z,0.90
2023-09-25T13:47:57.506Z,1.50
2023-09-25T13:50:26.119Z,1.00
2023-09-25T13:52:56.174Z,0.73
2023-09-25T13:55:24.694Z,0.77
2023-09-25T13:57:55.599Z,0.90
2023-09-25T14:00:24.830Z,0.73
2023-09-25T14:02:53.584Z,1.42
2023-09-25T14:05:23.699Z,1.60
2023-09-25T14:07:52.297Z,2.30
2023-09-25T14:10:20.879Z,0.98
2023-09-25T14:12:49.596Z,1.20
2023-09-25T14:15:19.844Z,1.88
2023-09-25T14:17:48.406Z,1.52
2023-09-25T14:20:17.131Z,1.50
2023-09-25T14:22:47.073Z,0.95
2023-09-25T14:25:15.648Z,1.15
2023-09-25T14:27:44.690Z,1.83
2023-09-25T14:30:14.077Z,1.23
2023-09-25T14:32:44.582Z,1.27
2023-09-25T14:35:13.374Z,1.08
2023-09-25T14:37:42.444Z,1.95
2023-09-25T14:40:13.345Z,1.02
2023-09-25T14:42:47.320Z,1.92
2023-09-25T14:45:17.705Z,1.05
2023-09-25T14:47:49.032Z,1.20
2023-09-25T14:50:18.230Z,1.00
2023-09-25T14:52:47.082Z,1.50
2023-09-25T14:55:15.623Z,1.55
2023-09-25T14:57:44.284Z,1.73
2023-09-25T15:00:14.389Z,1.77
2023-09-25T15:02:43.726Z,1.38
2023-09-25T15:05:13.904Z,2.15
2023-09-25T15:07:42.517Z,1.50
2023-09-25T15:10:11.939Z,1.42
2023-09-25T15:12:40.586Z,1.98
2023-09-25T15:15:10.655Z,1.88
2023-09-25T15:17:39.263Z,1.33
2023-09-25T15:20:09.956Z,1.50
2023-09-25T15:22:39.877Z,1.40
2023-09-25T15:25:09.307Z,1.33
2023-09-25T15:27:37.930Z,1.58
2023-09-25T15:30:09.200Z,2.47
2023-09-25T15:32:37.835Z,3.10
2023-09-25T15:35:07.488Z,2.58
2023-09-25T15:37:35.983Z,2.28
2023-09-25T15:40:06.912Z,2.35
2023-09-25T15:42:35.689Z,1.83
2023-09-25T15:45:04.279Z,2.00
2023-09-25T15:47:33.328Z,2.45
2023-09-25T15:50:01.894Z,1.60
2023-09-25T15:52:30.426Z,1.52
2023-09-25T15:55:00.688Z,2.30
2023-09-25T15:57:32.543Z,2.47
2023-09-25T16:00:01.193Z,1.50
2023-09-25T16:02:31.067Z,2.55
2023-09-25T16:04:59.873Z,1.90
2023-09-25T16:07:29.086Z,1.40
2023-09-25T16:09:57.994Z,2.00
2023-09-25T16:12:27.564Z,1.35
2023-09-25T16:14:59.155Z,1.20
2023-09-25T16:17:28.105Z,1.70
2023-09-25T16:19:56.621Z,1.40
2023-09-25T16:22:25.188Z,1.77
2023-09-25T16:24:53.789Z,1.38
2023-09-25T16:27:22.367Z,1.88
2023-09-25T16:29:51.048Z,1.33
2023-09-25T16:32:21.030Z,1.30
2023-09-25T16:34:49.753Z,1.27
2023-09-25T16:37:18.339Z,1.45
2023-09-25T16:39:46.972Z,1.20
2023-09-25T16:42:15.608Z,1.27
2023-09-25T16:44:44.197Z,1.50
2023-09-25T16:47:12.885Z,1.08
2023-09-25T16:49:44.419Z,1.55
2023-09-25T16:52:13.218Z,1.27
2023-09-25T16:54:42.686Z,1.65
2023-09-25T16:57:11.293Z,1.13
2023-09-25T16:59:42.782Z,1.17
2023-09-25T17:02:12.553Z,1.20
2023-09-25T17:04:42.683Z,1.00
2023-09-25T17:07:12.776Z,1.35
2023-09-25T17:09:41.377Z,1.00
2023-09-25T17:12:10.008Z,1.30
2023-09-25T17:14:38.534Z,1.35
2023-09-25T17:17:07.206Z,0.90
2023-09-25T17:19:35.730Z,1.35
2023-09-25T17:22:05.754Z,1.08
2023-09-25T17:24:34.497Z,0.98
2023-09-25T17:27:03.097Z,1.35
2023-09-25T17:29:33.147Z,1.20
2023-09-25T17:32:01.773Z,1.35
2023-09-25T17:34:30.374Z,1.50
2023-09-25T17:37:00.003Z,1.42
2023-09-25T17:39:30.388Z,0.90
2023-09-25T17:41:59.059Z,1.30
2023-09-25T17:44:27.638Z,1.42
2023-09-25T17:46:56.488Z,1.17
2023-09-25T17:49:25.114Z,1.17
2023-09-25T17:51:56.419Z,1.05
2023-09-25T17:54:30.457Z,0.90
2023-09-25T17:56:59.043Z,1.30
2023-09-25T17:59:27.544Z,1.45
2023-09-25T18:01:56.852Z,1.20
2023-09-25T18:04:25.642Z,1.45
2023-09-25T18:06:54.808Z,1.02
2023-09-25T18:09:23.594Z,1.83
2023-09-25T18:11:54.018Z,1.38
2023-09-25T18:14:23.027Z,2.00
2023-09-25T18:16:51.690Z,1.75
2023-09-25T18:19:20.512Z,1.40
2023-09-25T18:21:49.358Z,1.50
2023-09-25T18:24:18.546Z,1.98
2023-09-25T18:26:47.477Z,1.30
2023-09-25T18:29:17.440Z,1.00
2023-09-25T18:31:46.303Z,1.13
2023-09-25T18:34:15.230Z,1.75
2023-09-25T18:36:43.903Z,1.23
2023-09-25T18:39:13.221Z,1.10
2023-09-25T18:41:42.035Z,1.70
2023-09-25T18:44:11.966Z,1.08
2023-09-25T18:46:42.079Z,1.15
2023-09-25T18:49:11.034Z,2.38
2023-09-25T18:51:39.669Z,0.80
2023-09-25T18:54:08.305Z,1.10
2023-09-25T18:56:36.900Z,1.08
2023-09-25T18:59:08.843Z,1.13
2023-09-25T19:01:38.466Z,0.85
2023-09-25T19:04:09.210Z,1.25
2023-09-25T19:06:38.072Z,1.08
2023-09-25T19:09:07.965Z,1.25
2023-09-25T19:11:36.734Z,1.48
2023-09-25T19:14:05.545Z,1.20
2023-09-25T19:16:34.526Z,1.20
2023-09-25T19:19:03.740Z,1.17
2023-09-25T19:21:33.772Z,1.08
2023-09-25T19:24:04.143Z,1.08
2023-09-25T19:26:32.862Z,1.33
2023-09-25T19:29:01.380Z,1.70
2023-09-25T19:31:40.780Z,1.20
2023-09-25T19:34:12.082Z,1.00
2023-09-25T19:36:43.303Z,1.42
2023-09-25T19:39:12.171Z,0.88
2023-09-25T19:41:40.729Z,1.05
2023-09-25T19:44:09.493Z,0.93
2023-09-25T19:46:38.396Z,0.90
2023-09-25T19:49:07.222Z,1.00
2023-09-25T19:51:39.913Z,2.05
2023-09-25T19:54:10.740Z,0.80
2023-09-25T19:56:39.509Z,1.00
2023-09-25T19:59:08.147Z,1.15
2023-09-25T20:01:37.334Z,1.08
2023-09-25T20:04:06.392Z,1.40
2023-09-25T20:06:35.255Z,0.95
2023-09-25T20:09:03.887Z,1.05
2023-09-25T20:11:33.865Z,1.23
2023-09-25T20:14:02.506Z,0.90
2023-09-25T20:16:31.167Z,0.88
2023-09-25T20:18:59.884Z,1.73
2023-09-25T20:21:28.606Z,1.05
2023-09-25T20:23:57.195Z,0.93
2023-09-25T20:26:25.888Z,0.80
2023-09-25T20:28:55.850Z,0.80
2023-09-25T20:31:24.555Z,1.05
2023-09-25T20:33:53.372Z,1.00
2023-09-25T20:36:22.197Z,0.95
2023-09-25T20:38:51.086Z,1.17
2023-09-25T20:41:19.701Z,0.73
2023-09-25T20:43:48.421Z,1.10
2023-09-25T20:46:18.679Z,0.90
2023-09-25T20:48:50.323Z,0.95
2023-09-25T20:51:18.959Z,0.95
2023-09-25T20:53:48.050Z,0.90
2023-09-25T20:56:16.685Z,1.02
2023-09-25T20:58:45.295Z,1.00
2023-09-25T21:01:13.899Z,1.20
2023-09-25T21:03:44.241Z,1.25
2023-09-25T21:06:12.897Z,1.20
2023-09-25T21:08:41.429Z,1.00
2023-09-25T21:11:09.996Z,0.90
2023-09-25T21:13:39.007Z,1.10
2023-09-25T21:16:07.659Z,0.90
2023-09-25T21:18:36.455Z,0.93
2023-09-25T21:21:08.800Z,1.00
2023-09-25T21:23:38.187Z,0.85
2023-09-25T21:26:06.776Z,0.80
2023-09-25T21:28:35.612Z,1.15
2023-09-25T21:31:04.221Z,0.82
2023-09-25T21:33:32.830Z,0.90
2023-09-25T21:36:01.380Z,0.88
2023-09-25T21:38:31.275Z,0.98
2023-09-25T21:40:59.819Z,0.80
2023-09-25T21:43:28.320Z,0.63
2023-09-25T21:45:57.145Z,1.00
2023-09-25T21:48:25.825Z,0.95
2023-09-25T21:51:00.496Z,0.90
2023-09-25T21:53:29.985Z,1.00
2023-09-25T21:55:59.929Z,0.75
2023-09-25T21:58:28.459Z,0.98
2023-09-25T22:00:57.074Z,1.00
2023-09-25T22:03:26.013Z,1.10
2023-09-25T22:05:54.714Z,0.80
2023-09-25T22:08:24.641Z,1.13
2023-09-25T22:10:53.319Z,1.00
2023-09-25T22:13:23.220Z,1.00
2023-09-25T22:15:51.946Z,0.73
2023-09-25T22:18:20.554Z,0.85
2023-09-25T22:20:49.870Z,0.70
2023-09-25T22:23:18.472Z,0.85
2023-09-25T22:25:47.123Z,1.13
2023-09-25T22:28:16.057Z,0.82
2023-09-25T22:30:46.170Z,0.70
2023-09-25T22:33:14.772Z,0.70
2023-09-25T22:35:44.187Z,1.35
2023-09-25T22:38:13.837Z,1.20
2023-09-25T22:40:42.778Z,0.98
2023-09-25T22:43:12.020Z,1.13
2023-09-25T22:45:40.692Z,0.82
2023-09-25T22:48:10.736Z,0.70
2023-09-25T22:50:39.389Z,0.75
2023-09-25T22:53:09.745Z,1.23
2023-09-25T22:55:38.304Z,0.63
2023-09-25T22:58:07.265Z,1.10
2023-09-25T23:00:37.229Z,0.80
2023-09-25T23:03:06.597Z,1.15
2023-09-25T23:05:36.635Z,1.08
2023-09-25T23:08:05.765Z,0.70
2023-09-25T23:10:34.432Z,0.80
2023-09-25T23:13:03.425Z,0.70
2023-09-25T23:15:32.329Z,0.65
2023-09-25T23:18:01.174Z,0.93
2023-09-25T23:20:30.929Z,0.52
2023-09-25T23:23:01.503Z,0.93
2023-09-25T23:25:30.193Z,1.05
2023-09-25T23:27:58.856Z,0.60
2023-09-25T23:30:27.514Z,0.90
2023-09-25T23:32:57.414Z,0.75
2023-09-25T23:35:26.782Z,0.80
2023-09-25T23:37:55.357Z,1.20
2023-09-25T23:40:25.961Z,0.80
2023-09-25T23:42:55.077Z,0.88
2023-09-25T23:45:24.285Z,0.75
2023-09-25T23:47:53.124Z,0.63
2023-09-25T23:50:21.849Z,0.70
2023-09-25T23:52:54.553Z,1.13
2023-09-25T23:55:23.488Z,0.68
2023-09-25T23:57:53.633Z,0.85
